Terminal Aerodrome Forecast
Issued by NWS Upton, NY

Home | Current Version | Previous Version | Text Only | Print | Product List | Glossary On
Versions: 1 2 3 4 5 6 7 8 9 10 11 12 13 14 15 16 17 18 19 20 21 22 23 24 25 26
000
FTUS41 KOKX 011100
TAFISP
TAF
KISP 011136Z 0112/0212 21006KT P6SM SCT250
     FM011700 18010KT P6SM FEW060 SCT250
     FM020000 18007KT P6SM FEW060 BKN150
     FM020400 VRB05KT P6SM VCSH SCT050 BKN100
     FM020800 05007KT 6SM -SHRA BKN050=

USA.gov is the U.S. government's official web portal to all federal, state and local government web resources and services.